sensor_id;sensor_type;location;lat;lon;timestamp;temperature;humidity
39347;DHT22;26262;49.836;6.632;2023-02-23T00:01:55;8.80;99.90
39347;DHT22;26262;49.836;6.632;2023-02-23T00:04:22;8.70;99.90
39347;DHT22;26262;49.836;6.632;2023-02-23T00:06:48;8.70;99.90
39347;DHT22;26262;49.836;6.632;2023-02-23T00:09:16;8.80;99.90
39347;DHT22;26262;49.836;6.632;2023-02-23T00:11:49;8.70;99.90
39347;DHT22;26262;49.836;6.632;2023-02-23T00:14:15;8.80;99.90
39347;DHT22;26262;49.836;6.632;2023-02-23T00:16:41;8.80;99.90
39347;DHT22;26262;49.836;6.632;2023-02-23T00:19:10;8.90;99.90
39347;DHT22;26262;49.836;6.632;2023-02-23T00:21:38;9.00;99.90
39347;DHT22;26262;49.836;6.632;2023-02-23T00:24:06;8.90;99.90
39347;DHT22;26262;49.836;6.632;2023-02-23T00:26:34;9.00;99.90
39347;DHT22;26262;49.836;6.632;2023-02-23T00:29:06;8.90;99.90
39347;DHT22;26262;49.836;6.632;2023-02-23T00:31:32;8.80;99.90
39347;DHT22;26262;49.836;6.632;2023-02-23T00:34:00;8.70;99.90
39347;DHT22;26262;49.836;6.632;2023-02-23T00:36:27;8.60;99.90
39347;DHT22;26262;49.836;6.632;2023-02-23T00:38:54;8.60;99.90
39347;DHT22;26262;49.836;6.632;2023-02-23T00:41:20;8.70;99.90
39347;DHT22;26262;49.836;6.632;2023-02-23T00:43:59;8.70;99.90
39347;DHT22;26262;49.836;6.632;2023-02-23T00:46:27;8.80;99.90
39347;DHT22;26262;49.836;6.632;2023-02-23T00:48:54;8.70;99.90
39347;DHT22;26262;49.836;6.632;2023-02-23T00:51:20;8.70;99.90
39347;DHT22;26262;49.836;6.632;2023-02-23T00:53:46;8.60;99.90
39347;DHT22;26262;49.836;6.632;2023-02-23T00:56:13;8.60;99.90
39347;DHT22;26262;49.836;6.632;2023-02-23T00:58:39;8.60;99.90
39347;DHT22;26262;49.836;6.632;2023-02-23T01:01:07;8.70;99.90
39347;DHT22;26262;49.836;6.632;2023-02-23T01:03:33;8.70;99.90
39347;DHT22;26262;49.836;6.632;2023-02-23T01:06:00;8.70;99.90
39347;DHT22;26262;49.836;6.632;2023-02-23T01:08:29;8.70;99.90
39347;DHT22;26262;49.836;6.632;2023-02-23T01:10:54;8.70;99.90
39347;DHT22;26262;49.836;6.632;2023-02-23T01:13:21;8.60;99.90
39347;DHT22;26262;49.836;6.632;2023-02-23T01:15:47;8.60;99.90
39347;DHT22;26262;49.836;6.632;2023-02-23T01:18:15;8.60;99.90
39347;DHT22;26262;49.836;6.632;2023-02-23T01:20:41;8.70;99.90
39347;DHT22;26262;49.836;6.632;2023-02-23T01:23:08;8.70;99.90
39347;DHT22;26262;49.836;6.632;2023-02-23T01:25:35;8.80;99.90
39347;DHT22;26262;49.836;6.632;2023-02-23T01:28:02;8.80;99.90
39347;DHT22;26262;49.836;6.632;2023-02-23T01:30:28;8.90;99.90
39347;DHT22;26262;49.836;6.632;2023-02-23T01:32:54;8.80;99.90
39347;DHT22;26262;49.836;6.632;2023-02-23T01:35:19;8.80;99.90
39347;DHT22;26262;49.836;6.632;2023-02-23T01:37:45;8.70;99.90
39347;DHT22;26262;49.836;6.632;2023-02-23T01:40:19;8.70;99.90
39347;DHT22;26262;49.836;6.632;2023-02-23T01:43:18;8.80;99.90
39347;DHT22;26262;49.836;6.632;2023-02-23T01:45:53;8.90;99.90
39347;DHT22;26262;49.836;6.632;2023-02-23T01:48:45;8.90;99.90
39347;DHT22;26262;49.836;6.632;2023-02-23T01:51:15;8.90;99.90
39347;DHT22;26262;49.836;6.632;2023-02-23T01:53:46;8.90;99.90
39347;DHT22;26262;49.836;6.632;2023-02-23T01:56:20;8.80;99.90
39347;DHT22;26262;49.836;6.632;2023-02-23T01:58:52;8.90;99.90
39347;DHT22;26262;49.836;6.632;2023-02-23T02:01:19;8.70;99.90
39347;DHT22;26262;49.836;6.632;2023-02-23T02:03:57;8.80;99.90
39347;DHT22;26262;49.836;6.632;2023-02-23T02:06:25;8.80;99.90
39347;DHT22;26262;49.836;6.632;2023-02-23T02:09:09;8.80;99.90
39347;DHT22;26262;49.836;6.632;2023-02-23T02:11:40;8.90;99.90
39347;DHT22;26262;49.836;6.632;2023-02-23T02:14:12;8.90;99.90
39347;DHT22;26262;49.836;6.632;2023-02-23T02:33:57;8.90;99.90
39347;DHT22;26262;49.836;6.632;2023-02-23T02:42:18;8.90;99.90
39347;DHT22;26262;49.836;6.632;2023-02-23T02:47:45;8.90;99.90
39347;DHT22;26262;49.836;6.632;2023-02-23T02:52:54;8.70;99.90
39347;DHT22;26262;49.836;6.632;2023-02-23T02:55:24;8.70;99.90
39347;DHT22;26262;49.836;6.632;2023-02-23T02:57:54;8.80;99.90
39347;DHT22;26262;49.836;6.632;2023-02-23T03:00:26;8.70;99.90
39347;DHT22;26262;49.836;6.632;2023-02-23T03:03:32;8.70;99.90
39347;DHT22;26262;49.836;6.632;2023-02-23T03:06:19;8.80;99.90
39347;DHT22;26262;49.836;6.632;2023-02-23T03:09:15;8.70;99.90
39347;DHT22;26262;49.836;6.632;2023-02-23T03:12:10;8.80;99.90
39347;DHT22;26262;49.836;6.632;2023-02-23T03:18:39;8.70;99.90
39347;DHT22;26262;49.836;6.632;2023-02-23T03:21:35;8.80;99.90
39347;DHT22;26262;49.836;6.632;2023-02-23T03:30:45;8.60;99.90
39347;DHT22;26262;49.836;6.632;2023-02-23T03:33:35;8.50;99.90
39347;DHT22;26262;49.836;6.632;2023-02-23T03:36:24;8.60;99.90
39347;DHT22;26262;49.836;6.632;2023-02-23T03:39:21;8.60;99.90
39347;DHT22;26262;49.836;6.632;2023-02-23T03:42:12;8.60;99.90
39347;DHT22;26262;49.836;6.632;2023-02-23T03:45:03;8.70;99.90
39347;DHT22;26262;49.836;6.632;2023-02-23T03:47:49;8.60;99.90
39347;DHT22;26262;49.836;6.632;2023-02-23T03:50:40;8.60;99.90
39347;DHT22;26262;49.836;6.632;2023-02-23T03:53:34;8.70;99.90
39347;DHT22;26262;49.836;6.632;2023-02-23T03:56:22;8.70;99.90
39347;DHT22;26262;49.836;6.632;2023-02-23T03:59:11;8.70;99.90
39347;DHT22;26262;49.836;6.632;2023-02-23T04:01:58;8.60;99.90
39347;DHT22;26262;49.836;6.632;2023-02-23T04:04:44;8.60;99.90
39347;DHT22;26262;49.836;6.632;2023-02-23T04:07:30;8.70;99.90
39347;DHT22;26262;49.836;6.632;2023-02-23T04:10:14;8.60;99.90
39347;DHT22;26262;49.836;6.632;2023-02-23T04:13:04;8.60;99.90
39347;DHT22;26262;49.836;6.632;2023-02-23T04:16:04;8.70;99.90
39347;DHT22;26262;49.836;6.632;2023-02-23T04:18:33;8.70;99.90
39347;DHT22;26262;49.836;6.632;2023-02-23T04:20:59;8.70;99.90
39347;DHT22;26262;49.836;6.632;2023-02-23T04:23:26;8.70;99.90
39347;DHT22;26262;49.836;6.632;2023-02-23T04:25:52;8.60;99.90
39347;DHT22;26262;49.836;6.632;2023-02-23T04:28:19;8.70;99.90
39347;DHT22;26262;49.836;6.632;2023-02-23T04:30:45;8.70;99.90
39347;DHT22;26262;49.836;6.632;2023-02-23T04:33:11;8.80;99.90
39347;DHT22;26262;49.836;6.632;2023-02-23T04:35:37;8.70;99.90
39347;DHT22;26262;49.836;6.632;2023-02-23T04:38:02;8.70;99.90
39347;DHT22;26262;49.836;6.632;2023-02-23T04:40:28;8.60;99.90
39347;DHT22;26262;49.836;6.632;2023-02-23T04:42:54;8.70;99.90
39347;DHT22;26262;49.836;6.632;2023-02-23T04:45:21;8.70;99.90
39347;DHT22;26262;49.836;6.632;2023-02-23T04:47:48;8.80;99.90
39347;DHT22;26262;49.836;6.632;2023-02-23T04:50:14;8.80;99.90
39347;DHT22;26262;49.836;6.632;2023-02-23T04:52:39;8.80;99.90
39347;DHT22;26262;49.836;6.632;2023-02-23T04:55:06;8.70;99.90
39347;DHT22;26262;49.836;6.632;2023-02-23T04:57:33;8.80;99.90
39347;DHT22;26262;49.836;6.632;2023-02-23T04:59:59;8.80;99.90
39347;DHT22;26262;49.836;6.632;2023-02-23T05:02:26;8.70;99.90
39347;DHT22;26262;49.836;6.632;2023-02-23T05:04:51;8.60;99.90
39347;DHT22;26262;49.836;6.632;2023-02-23T05:07:17;8.50;99.90
39347;DHT22;26262;49.836;6.632;2023-02-23T05:09:42;8.60;99.90
39347;DHT22;26262;49.836;6.632;2023-02-23T05:12:08;8.60;99.90
39347;DHT22;26262;49.836;6.632;2023-02-23T05:14:33;8.50;99.90
39347;DHT22;26262;49.836;6.632;2023-02-23T05:16:59;8.60;99.90
39347;DHT22;26262;49.836;6.632;2023-02-23T05:19:25;8.60;99.90
39347;DHT22;26262;49.836;6.632;2023-02-23T05:21:50;8.60;99.90
39347;DHT22;26262;49.836;6.632;2023-02-23T05:24:17;8.60;99.90
39347;DHT22;26262;49.836;6.632;2023-02-23T05:26:43;8.70;99.90
39347;DHT22;26262;49.836;6.632;2023-02-23T05:29:09;8.70;99.90
39347;DHT22;26262;49.836;6.632;2023-02-23T05:31:35;8.70;99.90
39347;DHT22;26262;49.836;6.632;2023-02-23T05:34:00;8.50;99.90
39347;DHT22;26262;49.836;6.632;2023-02-23T05:36:26;8.60;99.90
39347;DHT22;26262;49.836;6.632;2023-02-23T05:38:52;8.60;99.90
39347;DHT22;26262;49.836;6.632;2023-02-23T05:41:20;8.70;99.90
39347;DHT22;26262;49.836;6.632;2023-02-23T05:43:47;8.70;99.90
39347;DHT22;26262;49.836;6.632;2023-02-23T05:46:15;8.70;99.90
39347;DHT22;26262;49.836;6.632;2023-02-23T05:48:42;8.70;99.90
39347;DHT22;26262;49.836;6.632;2023-02-23T05:51:09;8.70;99.90
39347;DHT22;26262;49.836;6.632;2023-02-23T05:53:36;8.40;99.90
39347;DHT22;26262;49.836;6.632;2023-02-23T05:56:02;8.40;99.90
39347;DHT22;26262;49.836;6.632;2023-02-23T05:58:28;8.50;99.90
39347;DHT22;26262;49.836;6.632;2023-02-23T06:00:54;8.60;99.90
39347;DHT22;26262;49.836;6.632;2023-02-23T06:03:19;8.60;99.90
39347;DHT22;26262;49.836;6.632;2023-02-23T06:05:55;8.60;99.90
39347;DHT22;26262;49.836;6.632;2023-02-23T06:08:22;8.60;99.90
39347;DHT22;26262;49.836;6.632;2023-02-23T06:10:48;8.60;99.90
39347;DHT22;26262;49.836;6.632;2023-02-23T06:13:14;8.50;99.90
39347;DHT22;26262;49.836;6.632;2023-02-23T06:15:40;8.40;99.90
39347;DHT22;26262;49.836;6.632;2023-02-23T06:18:06;8.50;99.90
39347;DHT22;26262;49.836;6.632;2023-02-23T06:20:33;8.50;99.90
39347;DHT22;26262;49.836;6.632;2023-02-23T06:22:59;8.40;99.90
39347;DHT22;26262;49.836;6.632;2023-02-23T06:25:24;8.50;99.90
39347;DHT22;26262;49.836;6.632;2023-02-23T06:27:50;8.50;99.90
39347;DHT22;26262;49.836;6.632;2023-02-23T06:30:15;8.50;99.90
39347;DHT22;26262;49.836;6.632;2023-02-23T06:32:41;8.60;99.90
39347;DHT22;26262;49.836;6.632;2023-02-23T06:35:07;8.60;99.90
39347;DHT22;26262;49.836;6.632;2023-02-23T06:37:33;8.60;99.90
39347;DHT22;26262;49.836;6.632;2023-02-23T06:39:59;8.70;99.90
39347;DHT22;26262;49.836;6.632;2023-02-23T06:42:25;8.60;99.90
39347;DHT22;26262;49.836;6.632;2023-02-23T06:44:51;8.60;99.90
39347;DHT22;26262;49.836;6.632;2023-02-23T06:47:17;8.60;99.90
39347;DHT22;26262;49.836;6.632;2023-02-23T06:49:42;8.60;99.90
39347;DHT22;26262;49.836;6.632;2023-02-23T06:52:08;8.60;99.90
39347;DHT22;26262;49.836;6.632;2023-02-23T06:54:34;8.60;99.90
39347;DHT22;26262;49.836;6.632;2023-02-23T06:57:02;8.60;99.90
39347;DHT22;26262;49.836;6.632;2023-02-23T06:59:27;8.70;99.90
39347;DHT22;26262;49.836;6.632;2023-02-23T07:01:54;8.70;99.90
39347;DHT22;26262;49.836;6.632;2023-02-23T07:04:20;8.70;99.90
39347;DHT22;26262;49.836;6.632;2023-02-23T07:06:46;8.70;99.90
39347;DHT22;26262;49.836;6.632;2023-02-23T07:09:12;8.60;99.90
39347;DHT22;26262;49.836;6.632;2023-02-23T07:11:38;8.70;99.90
39347;DHT22;26262;49.836;6.632;2023-02-23T07:14:05;8.70;99.90
39347;DHT22;26262;49.836;6.632;2023-02-23T07:16:30;8.70;99.90
39347;DHT22;26262;49.836;6.632;2023-02-23T07:18:56;8.70;99.90
39347;DHT22;26262;49.836;6.632;2023-02-23T07:21:22;8.70;99.90
39347;DHT22;26262;49.836;6.632;2023-02-23T07:23:47;8.70;99.90
39347;DHT22;26262;49.836;6.632;2023-02-23T07:26:14;8.70;99.90
39347;DHT22;26262;49.836;6.632;2023-02-23T07:28:41;8.60;99.90
39347;DHT22;26262;49.836;6.632;2023-02-23T07:31:07;8.60;99.90
39347;DHT22;26262;49.836;6.632;2023-02-23T07:33:33;8.60;99.90
39347;DHT22;26262;49.836;6.632;2023-02-23T07:35:58;8.70;99.90
39347;DHT22;26262;49.836;6.632;2023-02-23T07:38:24;8.70;99.90
39347;DHT22;26262;49.836;6.632;2023-02-23T07:40:50;8.70;99.90
39347;DHT22;26262;49.836;6.632;2023-02-23T07:43:15;8.80;99.90
39347;DHT22;26262;49.836;6.632;2023-02-23T07:45:41;8.80;99.90
39347;DHT22;26262;49.836;6.632;2023-02-23T07:48:07;8.90;99.90
39347;DHT22;26262;49.836;6.632;2023-02-23T07:50:33;8.90;99.90
39347;DHT22;26262;49.836;6.632;2023-02-23T07:53:00;8.90;99.90
39347;DHT22;26262;49.836;6.632;2023-02-23T07:55:26;9.00;99.90
39347;DHT22;26262;49.836;6.632;2023-02-23T07:57:51;8.80;99.90
39347;DHT22;26262;49.836;6.632;2023-02-23T08:00:17;8.70;99.90
39347;DHT22;26262;49.836;6.632;2023-02-23T08:02:43;8.70;99.90
39347;DHT22;26262;49.836;6.632;2023-02-23T08:05:09;8.70;99.90
39347;DHT22;26262;49.836;6.632;2023-02-23T08:07:35;8.80;99.90
39347;DHT22;26262;49.836;6.632;2023-02-23T08:10:01;8.80;99.90
39347;DHT22;26262;49.836;6.632;2023-02-23T08:12:27;8.90;99.90
39347;DHT22;26262;49.836;6.632;2023-02-23T08:14:52;8.80;99.90
39347;DHT22;26262;49.836;6.632;2023-02-23T08:17:18;8.80;99.90
39347;DHT22;26262;49.836;6.632;2023-02-23T08:19:44;8.90;99.90
39347;DHT22;26262;49.836;6.632;2023-02-23T08:22:09;9.00;99.90
39347;DHT22;26262;49.836;6.632;2023-02-23T08:24:35;9.00;99.90
39347;DHT22;26262;49.836;6.632;2023-02-23T08:27:01;9.00;99.90
39347;DHT22;26262;49.836;6.632;2023-02-23T08:29:27;8.90;99.90
39347;DHT22;26262;49.836;6.632;2023-02-23T08:31:53;9.00;99.90
39347;DHT22;26262;49.836;6.632;2023-02-23T08:34:20;9.00;99.90
39347;DHT22;26262;49.836;6.632;2023-02-23T08:36:47;9.00;99.90
39347;DHT22;26262;49.836;6.632;2023-02-23T08:39:13;9.10;99.90
39347;DHT22;26262;49.836;6.632;2023-02-23T08:41:39;9.10;99.90
39347;DHT22;26262;49.836;6.632;2023-02-23T08:44:05;9.20;99.90
39347;DHT22;26262;49.836;6.632;2023-02-23T08:46:31;9.10;99.90
39347;DHT22;26262;49.836;6.632;2023-02-23T08:48:56;9.10;99.90
39347;DHT22;26262;49.836;6.632;2023-02-23T08:51:22;8.90;99.90
39347;DHT22;26262;49.836;6.632;2023-02-23T08:53:47;9.00;99.90
39347;DHT22;26262;49.836;6.632;2023-02-23T08:56:13;9.00;99.90
39347;DHT22;26262;49.836;6.632;2023-02-23T08:58:40;9.10;99.90
39347;DHT22;26262;49.836;6.632;2023-02-23T09:01:06;9.10;99.90
39347;DHT22;26262;49.836;6.632;2023-02-23T09:03:32;9.20;99.90
39347;DHT22;26262;49.836;6.632;2023-02-23T09:06:09;9.20;99.90
39347;DHT22;26262;49.836;6.632;2023-02-23T09:08:35;9.20;99.90
39347;DHT22;26262;49.836;6.632;2023-02-23T09:11:01;9.30;99.90
39347;DHT22;26262;49.836;6.632;2023-02-23T09:13:26;9.30;99.90
39347;DHT22;26262;49.836;6.632;2023-02-23T09:15:52;9.40;99.90
39347;DHT22;26262;49.836;6.632;2023-02-23T09:18:18;9.40;99.90
39347;DHT22;26262;49.836;6.632;2023-02-23T09:20:44;9.40;99.90
39347;DHT22;26262;49.836;6.632;2023-02-23T09:23:10;9.50;99.90
39347;DHT22;26262;49.836;6.632;2023-02-23T09:25:41;9.50;99.90
39347;DHT22;26262;49.836;6.632;2023-02-23T09:28:17;9.50;99.90
39347;DHT22;26262;49.836;6.632;2023-02-23T09:30:44;9.60;99.90
39347;DHT22;26262;49.836;6.632;2023-02-23T09:33:11;9.50;99.90
39347;DHT22;26262;49.836;6.632;2023-02-23T09:35:37;9.50;99.90
39347;DHT22;26262;49.836;6.632;2023-02-23T09:38:04;9.50;99.90
39347;DHT22;26262;49.836;6.632;2023-02-23T09:40:36;9.50;99.90
39347;DHT22;26262;49.836;6.632;2023-02-23T09:45:50;9.50;99.90
39347;DHT22;26262;49.836;6.632;2023-02-23T09:48:22;9.50;99.90
39347;DHT22;26262;49.836;6.632;2023-02-23T09:50:50;9.50;99.90
39347;DHT22;26262;49.836;6.632;2023-02-23T09:55:58;9.80;99.90
39347;DHT22;26262;49.836;6.632;2023-02-23T09:58:32;9.80;99.90
39347;DHT22;26262;49.836;6.632;2023-02-23T10:03:37;10.00;99.90
39347;DHT22;26262;49.836;6.632;2023-02-23T10:06:08;10.10;99.90
39347;DHT22;26262;49.836;6.632;2023-02-23T10:08:43;10.10;99.90
39347;DHT22;26262;49.836;6.632;2023-02-23T10:11:22;10.10;99.90
39347;DHT22;26262;49.836;6.632;2023-02-23T10:14:12;10.10;99.90
39347;DHT22;26262;49.836;6.632;2023-02-23T10:19:27;10.20;99.90
39347;DHT22;26262;49.836;6.632;2023-02-23T10:22:02;10.20;99.90
39347;DHT22;26262;49.836;6.632;2023-02-23T10:24:49;10.30;99.90
39347;DHT22;26262;49.836;6.632;2023-02-23T10:27:19;10.30;99.90
39347;DHT22;26262;49.836;6.632;2023-02-23T10:29:57;10.40;99.90
39347;DHT22;26262;49.836;6.632;2023-02-23T10:32:52;10.40;99.90
39347;DHT22;26262;49.836;6.632;2023-02-23T10:35:21;10.40;99.90
39347;DHT22;26262;49.836;6.632;2023-02-23T10:37:48;10.40;99.90
39347;DHT22;26262;49.836;6.632;2023-02-23T10:40:17;10.40;99.90
39347;DHT22;26262;49.836;6.632;2023-02-23T10:42:45;10.40;99.90
39347;DHT22;26262;49.836;6.632;2023-02-23T10:45:38;10.50;99.90
39347;DHT22;26262;49.836;6.632;2023-02-23T10:48:07;10.50;99.90
39347;DHT22;26262;49.836;6.632;2023-02-23T10:50:36;10.50;99.90
39347;DHT22;26262;49.836;6.632;2023-02-23T10:53:13;10.50;99.90
39347;DHT22;26262;49.836;6.632;2023-02-23T10:55:43;10.60;99.90
39347;DHT22;26262;49.836;6.632;2023-02-23T10:58:18;10.70;99.90
39347;DHT22;26262;49.836;6.632;2023-02-23T11:00:54;10.70;99.90
39347;DHT22;26262;49.836;6.632;2023-02-23T11:05:49;10.80;99.90
39347;DHT22;26262;49.836;6.632;2023-02-23T11:10:59;10.80;99.90
39347;DHT22;26262;49.836;6.632;2023-02-23T11:13:27;10.90;99.90
39347;DHT22;26262;49.836;6.632;2023-02-23T11:16:06;10.90;99.90
39347;DHT22;26262;49.836;6.632;2023-02-23T11:18:34;10.90;99.90
39347;DHT22;26262;49.836;6.632;2023-02-23T11:21:00;10.90;99.90
39347;DHT22;26262;49.836;6.632;2023-02-23T11:23:30;10.90;99.90
39347;DHT22;26262;49.836;6.632;2023-02-23T11:26:00;10.90;99.90
39347;DHT22;26262;49.836;6.632;2023-02-23T11:28:35;11.00;99.90
39347;DHT22;26262;49.836;6.632;2023-02-23T11:31:16;11.00;99.90
39347;DHT22;26262;49.836;6.632;2023-02-23T11:33:43;11.00;99.90
39347;DHT22;26262;49.836;6.632;2023-02-23T11:36:30;11.00;99.90
39347;DHT22;26262;49.836;6.632;2023-02-23T11:39:19;11.00;99.90
39347;DHT22;26262;49.836;6.632;2023-02-23T11:41:46;11.00;99.90
39347;DHT22;26262;49.836;6.632;2023-02-23T11:44:19;11.10;99.90
39347;DHT22;26262;49.836;6.632;2023-02-23T11:46:46;11.10;99.90
39347;DHT22;26262;49.836;6.632;2023-02-23T11:49:20;11.00;99.90
39347;DHT22;26262;49.836;6.632;2023-02-23T11:51:50;11.10;99.90
39347;DHT22;26262;49.836;6.632;2023-02-23T11:54:24;11.00;99.90
39347;DHT22;26262;49.836;6.632;2023-02-23T11:56:51;11.00;99.90
39347;DHT22;26262;49.836;6.632;2023-02-23T11:59:32;10.90;99.90
39347;DHT22;26262;49.836;6.632;2023-02-23T12:02:27;11.00;99.90
39347;DHT22;26262;49.836;6.632;2023-02-23T12:05:17;11.00;99.90
39347;DHT22;26262;49.836;6.632;2023-02-23T12:10:36;11.20;99.90
39347;DHT22;26262;49.836;6.632;2023-02-23T12:15:46;11.30;99.90
39347;DHT22;26262;49.836;6.632;2023-02-23T12:18:21;11.10;99.90
39347;DHT22;26262;49.836;6.632;2023-02-23T12:20:50;11.00;99.90
39347;DHT22;26262;49.836;6.632;2023-02-23T12:23:21;11.10;99.90
39347;DHT22;26262;49.836;6.632;2023-02-23T12:25:54;11.10;99.90
39347;DHT22;26262;49.836;6.632;2023-02-23T12:28:39;11.10;99.90
39347;DHT22;26262;49.836;6.632;2023-02-23T12:33:42;11.20;99.90
39347;DHT22;26262;49.836;6.632;2023-02-23T12:36:38;11.20;99.90
39347;DHT22;26262;49.836;6.632;2023-02-23T12:39:31;11.30;99.90
39347;DHT22;26262;49.836;6.632;2023-02-23T12:42:14;11.30;99.90
39347;DHT22;26262;49.836;6.632;2023-02-23T12:44:48;11.30;99.90
39347;DHT22;26262;49.836;6.632;2023-02-23T12:50:20;11.40;99.90
39347;DHT22;26262;49.836;6.632;2023-02-23T12:52:57;11.40;99.90
39347;DHT22;26262;49.836;6.632;2023-02-23T12:55:38;11.50;99.90
39347;DHT22;26262;49.836;6.632;2023-02-23T12:58:28;11.50;99.90
39347;DHT22;26262;49.836;6.632;2023-02-23T13:01:09;11.50;99.90
39347;DHT22;26262;49.836;6.632;2023-02-23T13:06:27;11.70;99.90
39347;DHT22;26262;49.836;6.632;2023-02-23T13:09:05;11.90;99.90
39347;DHT22;26262;49.836;6.632;2023-02-23T13:14:45;12.10;99.90
39347;DHT22;26262;49.836;6.632;2023-02-23T13:17:58;12.20;99.90
39347;DHT22;26262;49.836;6.632;2023-02-23T13:23:16;12.50;99.90
39347;DHT22;26262;49.836;6.632;2023-02-23T13:29:04;12.90;99.90
39347;DHT22;26262;49.836;6.632;2023-02-23T13:31:35;13.10;99.90
39347;DHT22;26262;49.836;6.632;2023-02-23T13:34:02;13.60;99.90
39347;DHT22;26262;49.836;6.632;2023-02-23T13:36:30;14.10;99.90
39347;DHT22;26262;49.836;6.632;2023-02-23T13:39:28;14.50;99.90
39347;DHT22;26262;49.836;6.632;2023-02-23T13:42:19;14.60;99.90
39347;DHT22;26262;49.836;6.632;2023-02-23T13:48:03;14.20;99.90
39347;DHT22;26262;49.836;6.632;2023-02-23T13:53:43;13.50;99.90
39347;DHT22;26262;49.836;6.632;2023-02-23T13:56:16;13.20;99.90
39347;DHT22;26262;49.836;6.632;2023-02-23T13:59:04;13.20;99.90
39347;DHT22;26262;49.836;6.632;2023-02-23T14:01:32;12.70;99.90
39347;DHT22;26262;49.836;6.632;2023-02-23T14:04:03;12.60;99.90
39347;DHT22;26262;49.836;6.632;2023-02-23T14:06:31;12.70;99.90
39347;DHT22;26262;49.836;6.632;2023-02-23T14:09:07;12.80;99.90
39347;DHT22;26262;49.836;6.632;2023-02-23T14:11:41;12.70;99.90
39347;DHT22;26262;49.836;6.632;2023-02-23T14:14:11;12.80;99.90
39347;DHT22;26262;49.836;6.632;2023-02-23T14:16:37;12.90;99.90
39347;DHT22;26262;49.836;6.632;2023-02-23T14:22:04;12.80;99.90
39347;DHT22;26262;49.836;6.632;2023-02-23T14:24:30;12.70;99.90
39347;DHT22;26262;49.836;6.632;2023-02-23T14:27:22;12.70;99.90
39347;DHT22;26262;49.836;6.632;2023-02-23T14:32:40;12.60;99.90
39347;DHT22;26262;49.836;6.632;2023-02-23T14:35:35;12.50;99.90
39347;DHT22;26262;49.836;6.632;2023-02-23T14:41:04;12.40;99.90
39347;DHT22;26262;49.836;6.632;2023-02-23T14:43:40;12.40;99.90
39347;DHT22;26262;49.836;6.632;2023-02-23T14:46:19;12.50;99.90
39347;DHT22;26262;49.836;6.632;2023-02-23T14:49:17;12.40;99.90
39347;DHT22;26262;49.836;6.632;2023-02-23T14:54:10;12.50;99.90
39347;DHT22;26262;49.836;6.632;2023-02-23T14:56:46;12.50;99.90
39347;DHT22;26262;49.836;6.632;2023-02-23T14:59:22;12.40;99.90
39347;DHT22;26262;49.836;6.632;2023-02-23T15:01:50;12.40;99.90
39347;DHT22;26262;49.836;6.632;2023-02-23T15:04:20;12.50;99.90
39347;DHT22;26262;49.836;6.632;2023-02-23T15:06:47;12.50;99.90
39347;DHT22;26262;49.836;6.632;2023-02-23T15:09:28;12.30;99.90
39347;DHT22;26262;49.836;6.632;2023-02-23T15:11:56;12.40;99.90
39347;DHT22;26262;49.836;6.632;2023-02-23T15:14:24;12.20;99.90
39347;DHT22;26262;49.836;6.632;2023-02-23T15:16:49;12.20;99.90
39347;DHT22;26262;49.836;6.632;2023-02-23T15:19:19;12.20;99.90
39347;DHT22;26262;49.836;6.632;2023-02-23T15:21:49;12.20;99.90
39347;DHT22;26262;49.836;6.632;2023-02-23T15:24:15;12.20;99.90
39347;DHT22;26262;49.836;6.632;2023-02-23T15:26:43;12.10;99.90
39347;DHT22;26262;49.836;6.632;2023-02-23T15:31:34;11.90;99.90
39347;DHT22;26262;49.836;6.632;2023-02-23T15:34:01;11.80;99.90
39347;DHT22;26262;49.836;6.632;2023-02-23T15:36:29;11.60;99.90
39347;DHT22;26262;49.836;6.632;2023-02-23T15:39:01;11.30;99.90
39347;DHT22;26262;49.836;6.632;2023-02-23T15:41:37;11.40;99.90
39347;DHT22;26262;49.836;6.632;2023-02-23T15:44:13;11.40;99.90
39347;DHT22;26262;49.836;6.632;2023-02-23T15:46:41;11.50;99.90
39347;DHT22;26262;49.836;6.632;2023-02-23T15:49:12;11.50;99.90
39347;DHT22;26262;49.836;6.632;2023-02-23T15:51:47;11.50;99.90
39347;DHT22;26262;49.836;6.632;2023-02-23T15:55:07;11.30;99.90
39347;DHT22;26262;49.836;6.632;2023-02-23T15:58:01;11.10;99.90
39347;DHT22;26262;49.836;6.632;2023-02-23T16:00:03;11.30;99.90
39347;DHT22;26262;49.836;6.632;2023-02-23T16:02:36;11.20;99.90
39347;DHT22;26262;49.836;6.632;2023-02-23T16:05:20;11.20;99.90
39347;DHT22;26262;49.836;6.632;2023-02-23T16:07:47;11.30;99.90
39347;DHT22;26262;49.836;6.632;2023-02-23T16:10:23;11.00;99.90
39347;DHT22;26262;49.836;6.632;2023-02-23T16:12:51;10.90;99.90
39347;DHT22;26262;49.836;6.632;2023-02-23T16:17:55;10.80;99.90
39347;DHT22;26262;49.836;6.632;2023-02-23T16:23:09;10.90;99.90
39347;DHT22;26262;49.836;6.632;2023-02-23T16:25:41;10.70;99.90
39347;DHT22;26262;49.836;6.632;2023-02-23T16:28:13;10.60;99.90
39347;DHT22;26262;49.836;6.632;2023-02-23T16:31:02;10.70;99.90
39347;DHT22;26262;49.836;6.632;2023-02-23T16:33:30;10.80;99.90
39347;DHT22;26262;49.836;6.632;2023-02-23T16:38:38;10.80;99.90
39347;DHT22;26262;49.836;6.632;2023-02-23T16:41:04;10.70;99.90
39347;DHT22;26262;49.836;6.632;2023-02-23T16:43:32;10.40;99.90
39347;DHT22;26262;49.836;6.632;2023-02-23T16:45:59;10.40;99.90
39347;DHT22;26262;49.836;6.632;2023-02-23T16:48:25;10.30;99.90
39347;DHT22;26262;49.836;6.632;2023-02-23T16:50:51;10.00;99.90
39347;DHT22;26262;49.836;6.632;2023-02-23T16:53:16;9.90;99.90
39347;DHT22;26262;49.836;6.632;2023-02-23T16:55:47;10.00;99.90
39347;DHT22;26262;49.836;6.632;2023-02-23T16:58:21;9.90;99.90
39347;DHT22;26262;49.836;6.632;2023-02-23T17:00:48;9.80;99.90
39347;DHT22;26262;49.836;6.632;2023-02-23T17:03:25;9.70;99.90
39347;DHT22;26262;49.836;6.632;2023-02-23T17:05:51;9.70;99.90
39347;DHT22;26262;49.836;6.632;2023-02-23T17:08:17;9.70;99.90
39347;DHT22;26262;49.836;6.632;2023-02-23T17:10:46;9.70;99.90
39347;DHT22;26262;49.836;6.632;2023-02-23T17:13:20;9.80;99.90
39347;DHT22;26262;49.836;6.632;2023-02-23T17:15:47;9.80;99.90
39347;DHT22;26262;49.836;6.632;2023-02-23T17:18:16;9.60;99.90
39347;DHT22;26262;49.836;6.632;2023-02-23T17:20:42;9.60;99.90
39347;DHT22;26262;49.836;6.632;2023-02-23T17:23:08;9.40;99.90
39347;DHT22;26262;49.836;6.632;2023-02-23T17:25:33;9.50;99.90
39347;DHT22;26262;49.836;6.632;2023-02-23T17:28:00;9.50;99.90
39347;DHT22;26262;49.836;6.632;2023-02-23T17:30:26;9.40;99.90
39347;DHT22;26262;49.836;6.632;2023-02-23T17:32:54;9.40;99.90
39347;DHT22;26262;49.836;6.632;2023-02-23T17:35:20;9.40;99.90
39347;DHT22;26262;49.836;6.632;2023-02-23T17:37:46;9.40;99.90
39347;DHT22;26262;49.836;6.632;2023-02-23T17:40:15;9.50;99.90
39347;DHT22;26262;49.836;6.632;2023-02-23T17:42:41;9.60;99.90
39347;DHT22;26262;49.836;6.632;2023-02-23T17:45:07;9.60;99.90
39347;DHT22;26262;49.836;6.632;2023-02-23T17:47:34;9.60;99.90
39347;DHT22;26262;49.836;6.632;2023-02-23T17:50:00;9.40;99.90
39347;DHT22;26262;49.836;6.632;2023-02-23T17:52:26;9.40;99.90